sensor_id;sensor_type;location;lat;lon;timestamp;P1;durP1;ratioP1;P2;durP2;ratioP2
76051;SDS011;64751;48.708;9.710;2023-05-01T14:32:37;0.10;;;0.10;;
76051;SDS011;64751;48.708;9.710;2023-05-01T14:35:07;0.10;;;0.10;;
76051;SDS011;64751;48.708;9.710;2023-05-01T14:37:44;0.10;;;0.10;;
76051;SDS011;64751;48.708;9.710;2023-05-01T14:40:16;0.03;;;0.03;;
76051;SDS011;64751;48.708;9.710;2023-05-01T14:42:44;0.03;;;0.03;;
76051;SDS011;64751;48.708;9.710;2023-05-01T14:45:13;0.20;;;0.10;;
76051;SDS011;64751;48.708;9.710;2023-05-01T14:47:44;0.15;;;0.15;;
76051;SDS011;64751;48.708;9.710;2023-05-01T14:50:17;0.10;;;0.10;;
76051;SDS011;64751;48.708;9.710;2023-05-01T14:52:46;0.00;;;0.00;;
76051;SDS011;64751;48.708;9.710;2023-05-01T14:55:23;0.00;;;0.00;;
76051;SDS011;64751;48.708;9.710;2023-05-01T14:57:53;0.10;;;0.10;;
76051;SDS011;64751;48.708;9.710;2023-05-01T15:00:21;0.10;;;0.10;;
76051;SDS011;64751;48.708;9.710;2023-05-01T15:02:51;0.28;;;0.20;;
76051;SDS011;64751;48.708;9.710;2023-05-01T15:05:20;0.05;;;0.05;;
76051;SDS011;64751;48.708;9.710;2023-05-01T15:07:52;0.20;;;0.10;;
76051;SDS011;64751;48.708;9.710;2023-05-01T15:10:22;0.10;;;0.10;;
76051;SDS011;64751;48.708;9.710;2023-05-01T15:12:50;0.00;;;0.00;;
76051;SDS011;64751;48.708;9.710;2023-05-01T15:15:19;0.08;;;0.08;;
76051;SDS011;64751;48.708;9.710;2023-05-01T15:17:47;0.15;;;0.15;;
76051;SDS011;64751;48.708;9.710;2023-05-01T15:20:16;0.03;;;0.03;;
76051;SDS011;64751;48.708;9.710;2023-05-01T15:22:44;0.10;;;0.10;;
76051;SDS011;64751;48.708;9.710;2023-05-01T15:25:12;0.13;;;0.08;;
76051;SDS011;64751;48.708;9.710;2023-05-01T15:27:41;0.17;;;0.17;;
76051;SDS011;64751;48.708;9.710;2023-05-01T15:30:09;0.10;;;0.10;;
76051;SDS011;64751;48.708;9.710;2023-05-01T15:32:37;0.10;;;0.10;;
76051;SDS011;64751;48.708;9.710;2023-05-01T15:35:06;0.20;;;0.20;;
76051;SDS011;64751;48.708;9.710;2023-05-01T15:37:35;0.10;;;0.10;;
76051;SDS011;64751;48.708;9.710;2023-05-01T15:40:03;0.10;;;0.10;;
76051;SDS011;64751;48.708;9.710;2023-05-01T15:42:32;0.20;;;0.20;;
76051;SDS011;64751;48.708;9.710;2023-05-01T15:44:59;0.10;;;0.10;;
76051;SDS011;64751;48.708;9.710;2023-05-01T15:47:29;0.10;;;0.10;;
76051;SDS011;64751;48.708;9.710;2023-05-01T15:49:57;0.10;;;0.10;;
76051;SDS011;64751;48.708;9.710;2023-05-01T15:52:25;0.10;;;0.10;;
76051;SDS011;64751;48.708;9.710;2023-05-01T15:54:54;0.15;;;0.15;;
76051;SDS011;64751;48.708;9.710;2023-05-01T15:57:21;0.20;;;0.13;;
76051;SDS011;64751;48.708;9.710;2023-05-01T15:59:49;0.00;;;0.00;;
76051;SDS011;64751;48.708;9.710;2023-05-01T16:02:19;0.10;;;0.10;;
76051;SDS011;64751;48.708;9.710;2023-05-01T16:04:46;0.20;;;0.20;;
76051;SDS011;64751;48.708;9.710;2023-05-01T16:07:14;0.10;;;0.10;;
76051;SDS011;64751;48.708;9.710;2023-05-01T16:09:41;0.17;;;0.17;;
76051;SDS011;64751;48.708;9.710;2023-05-01T16:12:10;0.10;;;0.10;;
76051;SDS011;64751;48.708;9.710;2023-05-01T16:14:38;0.00;;;0.00;;
76051;SDS011;64751;48.708;9.710;2023-05-01T16:17:06;0.08;;;0.08;;
76051;SDS011;64751;48.708;9.710;2023-05-01T16:19:34;0.10;;;0.10;;
76051;SDS011;64751;48.708;9.710;2023-05-01T16:22:03;0.10;;;0.10;;
76051;SDS011;64751;48.708;9.710;2023-05-01T16:24:31;0.10;;;0.10;;
76051;SDS011;64751;48.708;9.710;2023-05-01T16:26:59;0.10;;;0.10;;
76051;SDS011;64751;48.708;9.710;2023-05-01T16:29:28;0.47;;;0.20;;
76051;SDS011;64751;48.708;9.710;2023-05-01T16:31:58;0.00;;;0.00;;
76051;SDS011;64751;48.708;9.710;2023-05-01T16:34:26;0.10;;;0.10;;
76051;SDS011;64751;48.708;9.710;2023-05-01T16:36:54;0.10;;;0.10;;
76051;SDS011;64751;48.708;9.710;2023-05-01T16:39:21;0.00;;;0.00;;
76051;SDS011;64751;48.708;9.710;2023-05-01T16:41:50;0.00;;;0.00;;
76051;SDS011;64751;48.708;9.710;2023-05-01T16:44:19;0.00;;;0.00;;
76051;SDS011;64751;48.708;9.710;2023-05-01T16:46:50;0.10;;;0.10;;
76051;SDS011;64751;48.708;9.710;2023-05-01T16:49:19;0.05;;;0.05;;
76051;SDS011;64751;48.708;9.710;2023-05-01T16:51:48;0.00;;;0.00;;
76051;SDS011;64751;48.708;9.710;2023-05-01T16:54:21;0.15;;;0.10;;
76051;SDS011;64751;48.708;9.710;2023-05-01T16:56:49;0.10;;;0.10;;
76051;SDS011;64751;48.708;9.710;2023-05-01T16:59:17;0.10;;;0.10;;
76051;SDS011;64751;48.708;9.710;2023-05-01T17:01:44;0.00;;;0.00;;
76051;SDS011;64751;48.708;9.710;2023-05-01T17:04:14;0.10;;;0.10;;
76051;SDS011;64751;48.708;9.710;2023-05-01T17:06:41;0.00;;;0.00;;
76051;SDS011;64751;48.708;9.710;2023-05-01T17:09:09;0.08;;;0.08;;
76051;SDS011;64751;48.708;9.710;2023-05-01T17:11:52;0.17;;;0.17;;
76051;SDS011;64751;48.708;9.710;2023-05-01T17:14:21;0.03;;;0.03;;
76051;SDS011;64751;48.708;9.710;2023-05-01T17:16:49;0.00;;;0.00;;
76051;SDS011;64751;48.708;9.710;2023-05-01T17:19:18;0.00;;;0.00;;
76051;SDS011;64751;48.708;9.710;2023-05-01T17:21:45;0.00;;;0.00;;
76051;SDS011;64751;48.708;9.710;2023-05-01T17:24:13;0.00;;;0.00;;
76051;SDS011;64751;48.708;9.710;2023-05-01T17:26:41;0.00;;;0.00;;
76051;SDS011;64751;48.708;9.710;2023-05-01T17:29:09;0.10;;;0.10;;
76051;SDS011;64751;48.708;9.710;2023-05-01T17:31:36;0.08;;;0.08;;
76051;SDS011;64751;48.708;9.710;2023-05-01T17:34:04;0.00;;;0.00;;
76051;SDS011;64751;48.708;9.710;2023-05-01T17:36:33;0.17;;;0.17;;
76051;SDS011;64751;48.708;9.710;2023-05-01T17:39:01;0.10;;;0.10;;
76051;SDS011;64751;48.708;9.710;2023-05-01T17:41:29;0.08;;;0.00;;
76051;SDS011;64751;48.708;9.710;2023-05-01T17:43:57;0.10;;;0.10;;
76051;SDS011;64751;48.708;9.710;2023-05-01T17:46:24;0.00;;;0.00;;
76051;SDS011;64751;48.708;9.710;2023-05-01T17:48:52;0.00;;;0.00;;
76051;SDS011;64751;48.708;9.710;2023-05-01T17:51:20;0.03;;;0.03;;
76051;SDS011;64751;48.708;9.710;2023-05-01T17:53:49;0.03;;;0.03;;
76051;SDS011;64751;48.708;9.710;2023-05-01T17:56:17;0.03;;;0.03;;
76051;SDS011;64751;48.708;9.710;2023-05-01T17:58:46;0.03;;;0.03;;
76051;SDS011;64751;48.708;9.710;2023-05-01T18:01:14;0.10;;;0.10;;
76051;SDS011;64751;48.708;9.710;2023-05-01T18:03:41;0.20;;;0.20;;
76051;SDS011;64751;48.708;9.710;2023-05-01T18:06:09;0.10;;;0.10;;
76051;SDS011;64751;48.708;9.710;2023-05-01T18:08:37;0.10;;;0.10;;
76051;SDS011;64751;48.708;9.710;2023-05-01T18:11:06;0.10;;;0.10;;
76051;SDS011;64751;48.708;9.710;2023-05-01T18:13:34;0.20;;;0.20;;
76051;SDS011;64751;48.708;9.710;2023-05-01T18:16:04;0.10;;;0.10;;
76051;SDS011;64751;48.708;9.710;2023-05-01T18:18:32;0.10;;;0.10;;
76051;SDS011;64751;48.708;9.710;2023-05-01T18:21:00;0.10;;;0.10;;
76051;SDS011;64751;48.708;9.710;2023-05-01T18:23:28;0.10;;;0.10;;
76051;SDS011;64751;48.708;9.710;2023-05-01T18:25:56;0.10;;;0.10;;
76051;SDS011;64751;48.708;9.710;2023-05-01T18:28:24;0.10;;;0.10;;
76051;SDS011;64751;48.708;9.710;2023-05-01T18:30:52;0.00;;;0.00;;
76051;SDS011;64751;48.708;9.710;2023-05-01T18:33:20;0.10;;;0.10;;
76051;SDS011;64751;48.708;9.710;2023-05-01T18:35:48;0.10;;;0.10;;
76051;SDS011;64751;48.708;9.710;2023-05-01T18:38:15;0.10;;;0.10;;
76051;SDS011;64751;48.708;9.710;2023-05-01T18:40:43;0.30;;;0.20;;
76051;SDS011;64751;48.708;9.710;2023-05-01T18:43:10;0.10;;;0.10;;
76051;SDS011;64751;48.708;9.710;2023-05-01T18:45:40;0.10;;;0.10;;
76051;SDS011;64751;48.708;9.710;2023-05-01T18:48:08;0.10;;;0.10;;
76051;SDS011;64751;48.708;9.710;2023-05-01T18:50:35;0.10;;;0.10;;
76051;SDS011;64751;48.708;9.710;2023-05-01T18:53:03;0.10;;;0.10;;
76051;SDS011;64751;48.708;9.710;2023-05-01T18:55:31;0.03;;;0.03;;
76051;SDS011;64751;48.708;9.710;2023-05-01T18:57:58;0.10;;;0.10;;
76051;SDS011;64751;48.708;9.710;2023-05-01T19:00:27;0.10;;;0.10;;
76051;SDS011;64751;48.708;9.710;2023-05-01T19:02:57;0.00;;;0.00;;
76051;SDS011;64751;48.708;9.710;2023-05-01T19:05:25;0.00;;;0.00;;
76051;SDS011;64751;48.708;9.710;2023-05-01T19:07:52;0.03;;;0.03;;
76051;SDS011;64751;48.708;9.710;2023-05-01T19:10:23;0.10;;;0.10;;
76051;SDS011;64751;48.708;9.710;2023-05-01T19:12:51;0.03;;;0.03;;
76051;SDS011;64751;48.708;9.710;2023-05-01T19:15:18;0.10;;;0.10;;
76051;SDS011;64751;48.708;9.710;2023-05-01T19:17:46;0.10;;;0.10;;
76051;SDS011;64751;48.708;9.710;2023-05-01T19:20:15;0.10;;;0.10;;
76051;SDS011;64751;48.708;9.710;2023-05-01T19:22:43;0.00;;;0.00;;
76051;SDS011;64751;48.708;9.710;2023-05-01T19:25:10;0.00;;;0.00;;
76051;SDS011;64751;48.708;9.710;2023-05-01T19:27:38;0.05;;;0.05;;
76051;SDS011;64751;48.708;9.710;2023-05-01T19:30:07;0.00;;;0.00;;
76051;SDS011;64751;48.708;9.710;2023-05-01T19:32:35;0.05;;;0.05;;
76051;SDS011;64751;48.708;9.710;2023-05-01T19:35:03;0.00;;;0.00;;
76051;SDS011;64751;48.708;9.710;2023-05-01T19:37:33;0.20;;;0.20;;
76051;SDS011;64751;48.708;9.710;2023-05-01T19:40:02;0.13;;;0.13;;
76051;SDS011;64751;48.708;9.710;2023-05-01T19:42:30;0.32;;;0.20;;
76051;SDS011;64751;48.708;9.710;2023-05-01T19:44:58;0.10;;;0.10;;
76051;SDS011;64751;48.708;9.710;2023-05-01T19:47:26;0.13;;;0.13;;
76051;SDS011;64751;48.708;9.710;2023-05-01T19:49:53;0.13;;;0.13;;
76051;SDS011;64751;48.708;9.710;2023-05-01T19:52:21;0.13;;;0.13;;
76051;SDS011;64751;48.708;9.710;2023-05-01T19:54:50;0.10;;;0.10;;
76051;SDS011;64751;48.708;9.710;2023-05-01T19:57:17;0.03;;;0.03;;
76051;SDS011;64751;48.708;9.710;2023-05-01T19:59:45;0.15;;;0.15;;
76051;SDS011;64751;48.708;9.710;2023-05-01T20:02:14;0.00;;;0.00;;
76051;SDS011;64751;48.708;9.710;2023-05-01T20:04:41;0.10;;;0.10;;
76051;SDS011;64751;48.708;9.710;2023-05-01T20:07:09;0.52;;;0.20;;
76051;SDS011;64751;48.708;9.710;2023-05-01T20:09:36;0.03;;;0.03;;
76051;SDS011;64751;48.708;9.710;2023-05-01T20:12:05;0.00;;;0.00;;
76051;SDS011;64751;48.708;9.710;2023-05-01T20:14:33;0.10;;;0.10;;
76051;SDS011;64751;48.708;9.710;2023-05-01T20:17:01;0.13;;;0.10;;
76051;SDS011;64751;48.708;9.710;2023-05-01T20:19:28;0.10;;;0.10;;
76051;SDS011;64751;48.708;9.710;2023-05-01T20:21:56;0.10;;;0.10;;
76051;SDS011;64751;48.708;9.710;2023-05-01T20:24:24;0.10;;;0.10;;
76051;SDS011;64751;48.708;9.710;2023-05-01T20:26:51;0.08;;;0.08;;
76051;SDS011;64751;48.708;9.710;2023-05-01T20:29:22;0.00;;;0.00;;
76051;SDS011;64751;48.708;9.710;2023-05-01T20:31:49;0.10;;;0.10;;
76051;SDS011;64751;48.708;9.710;2023-05-01T20:34:17;0.00;;;0.00;;
76051;SDS011;64751;48.708;9.710;2023-05-01T20:36:45;0.10;;;0.10;;
76051;SDS011;64751;48.708;9.710;2023-05-01T20:39:13;0.03;;;0.03;;
76051;SDS011;64751;48.708;9.710;2023-05-01T20:41:40;0.05;;;0.05;;
76051;SDS011;64751;48.708;9.710;2023-05-01T20:44:08;0.10;;;0.10;;
76051;SDS011;64751;48.708;9.710;2023-05-01T20:46:37;0.10;;;0.10;;
76051;SDS011;64751;48.708;9.710;2023-05-01T20:49:05;0.10;;;0.10;;
76051;SDS011;64751;48.708;9.710;2023-05-01T20:51:35;0.10;;;0.00;;
76051;SDS011;64751;48.708;9.710;2023-05-01T20:54:03;0.03;;;0.03;;
76051;SDS011;64751;48.708;9.710;2023-05-01T20:56:31;0.10;;;0.10;;
76051;SDS011;64751;48.708;9.710;2023-05-01T20:58:59;0.05;;;0.05;;
76051;SDS011;64751;48.708;9.710;2023-05-01T21:01:28;0.10;;;0.10;;
76051;SDS011;64751;48.708;9.710;2023-05-01T21:03:57;0.00;;;0.00;;
76051;SDS011;64751;48.708;9.710;2023-05-01T21:06:25;0.10;;;0.10;;
76051;SDS011;64751;48.708;9.710;2023-05-01T21:08:53;0.00;;;0.00;;
76051;SDS011;64751;48.708;9.710;2023-05-01T21:11:20;0.00;;;0.00;;
76051;SDS011;64751;48.708;9.710;2023-05-01T21:13:48;0.20;;;0.20;;
76051;SDS011;64751;48.708;9.710;2023-05-01T21:16:16;86.10;;;42.55;;
76051;SDS011;64751;48.708;9.710;2023-05-01T21:18:45;230.35;;;84.50;;
76051;SDS011;64751;48.708;9.710;2023-05-01T21:21:14;264.98;;;108.15;;
76051;SDS011;64751;48.708;9.710;2023-05-01T21:23:44;80.70;;;37.35;;
76051;SDS011;64751;48.708;9.710;2023-05-01T21:26:14;127.13;;;49.28;;
76051;SDS011;64751;48.708;9.710;2023-05-01T21:28:43;11.55;;;8.48;;
76051;SDS011;64751;48.708;9.710;2023-05-01T21:31:11;1.05;;;1.00;;
76051;SDS011;64751;48.708;9.710;2023-05-01T21:33:40;2.58;;;1.42;;
76051;SDS011;64751;48.708;9.710;2023-05-01T21:36:11;0.25;;;0.25;;
76051;SDS011;64751;48.708;9.710;2023-05-01T21:38:44;0.20;;;0.20;;
76051;SDS011;64751;48.708;9.710;2023-05-01T21:41:12;0.10;;;0.10;;
76051;SDS011;64751;48.708;9.710;2023-05-01T21:43:40;0.10;;;0.10;;
76051;SDS011;64751;48.708;9.710;2023-05-01T21:46:08;0.10;;;0.05;;
76051;SDS011;64751;48.708;9.710;2023-05-01T21:48:40;0.10;;;0.10;;
76051;SDS011;64751;48.708;9.710;2023-05-01T21:51:08;0.20;;;0.10;;
76051;SDS011;64751;48.708;9.710;2023-05-01T21:53:36;0.10;;;0.10;;
76051;SDS011;64751;48.708;9.710;2023-05-01T21:56:09;0.20;;;0.20;;
76051;SDS011;64751;48.708;9.710;2023-05-01T21:58:38;0.10;;;0.10;;
